sensor_id;sensor_type;location;lat;lon;timestamp;pressure;altitude;pressure_sealevel;temperature;humidity
70900;BME280;67902;52.154;5.430;2024-02-28T00:00:57;102103.28;;;4.42;98.37
70900;BME280;67902;52.154;5.430;2024-02-28T00:03:23;102106.63;;;4.44;98.69
70900;BME280;67902;52.154;5.430;2024-02-28T00:05:50;102111.03;;;4.37;98.52
70900;BME280;67902;52.154;5.430;2024-02-28T00:08:17;102109.31;;;4.44;98.65
70900;BME280;67902;52.154;5.430;2024-02-28T00:10:45;102108.66;;;4.42;98.37
70900;BME280;67902;52.154;5.430;2024-02-28T00:13:12;102107.66;;;4.35;98.62
70900;BME280;67902;52.154;5.430;2024-02-28T00:15:40;102101.97;;;4.30;98.49
70900;BME280;67902;52.154;5.430;2024-02-28T00:18:08;102106.41;;;4.15;98.55
70900;BME280;67902;52.154;5.430;2024-02-28T00:20:34;102112.75;;;4.14;99.04
70900;BME280;67902;52.154;5.430;2024-02-28T00:23:01;102108.91;;;4.08;98.19
70900;BME280;67902;52.154;5.430;2024-02-28T00:25:27;102105.09;;;3.95;98.62
70900;BME280;67902;52.154;5.430;2024-02-28T00:27:54;102105.56;;;3.90;99.34
70900;BME280;67902;52.154;5.430;2024-02-28T00:30:20;102103.75;;;3.75;99.58
70900;BME280;67902;52.154;5.430;2024-02-28T00:32:47;102110.44;;;3.71;99.31
70900;BME280;67902;52.154;5.430;2024-02-28T00:35:13;102106.13;;;3.70;99.69
70900;BME280;67902;52.154;5.430;2024-02-28T00:37:40;102107.78;;;3.63;99.94
70900;BME280;67902;52.154;5.430;2024-02-28T00:40:08;102112.47;;;3.61;100.00
70900;BME280;67902;52.154;5.430;2024-02-28T00:42:34;102107.78;;;3.55;100.00
70900;BME280;67902;52.154;5.430;2024-02-28T00:45:01;102111.28;;;3.47;100.00
70900;BME280;67902;52.154;5.430;2024-02-28T00:47:29;102111.63;;;3.44;100.00
70900;BME280;67902;52.154;5.430;2024-02-28T00:49:55;102112.94;;;3.40;100.00
70900;BME280;67902;52.154;5.430;2024-02-28T00:52:22;102117.47;;;3.31;100.00
70900;BME280;67902;52.154;5.430;2024-02-28T00:54:51;102112.47;;;3.28;100.00
70900;BME280;67902;52.154;5.430;2024-02-28T00:57:17;102108.44;;;3.24;100.00
70900;BME280;67902;52.154;5.430;2024-02-28T00:59:44;102101.72;;;3.12;100.00
70900;BME280;67902;52.154;5.430;2024-02-28T01:02:11;102101.22;;;3.09;100.00
70900;BME280;67902;52.154;5.430;2024-02-28T01:04:39;102105.72;;;3.08;100.00
70900;BME280;67902;52.154;5.430;2024-02-28T01:07:06;102113.91;;;3.07;100.00
70900;BME280;67902;52.154;5.430;2024-02-28T01:09:32;102110.38;;;2.98;100.00
70900;BME280;67902;52.154;5.430;2024-02-28T01:11:59;102107.22;;;2.95;100.00
70900;BME280;67902;52.154;5.430;2024-02-28T01:14:25;102109.38;;;2.91;100.00
70900;BME280;67902;52.154;5.430;2024-02-28T01:16:52;102105.00;;;2.90;100.00
70900;BME280;67902;52.154;5.430;2024-02-28T01:19:19;102100.50;;;2.99;100.00
70900;BME280;67902;52.154;5.430;2024-02-28T01:21:45;102106.50;;;2.92;100.00
70900;BME280;67902;52.154;5.430;2024-02-28T01:24:12;102100.69;;;2.89;100.00
70900;BME280;67902;52.154;5.430;2024-02-28T01:26:39;102108.53;;;2.90;100.00
70900;BME280;67902;52.154;5.430;2024-02-28T01:29:06;102105.19;;;2.88;100.00
70900;BME280;67902;52.154;5.430;2024-02-28T01:31:33;102104.34;;;2.88;100.00
70900;BME280;67902;52.154;5.430;2024-02-28T01:33:59;102102.84;;;2.93;100.00
70900;BME280;67902;52.154;5.430;2024-02-28T01:36:26;102099.84;;;2.88;100.00
70900;BME280;67902;52.154;5.430;2024-02-28T01:38:53;102093.63;;;2.88;100.00
70900;BME280;67902;52.154;5.430;2024-02-28T01:41:20;102096.97;;;2.90;100.00
70900;BME280;67902;52.154;5.430;2024-02-28T01:43:47;102091.97;;;2.95;100.00
70900;BME280;67902;52.154;5.430;2024-02-28T01:46:23;102091.31;;;2.93;100.00
70900;BME280;67902;52.154;5.430;2024-02-28T01:48:50;102090.47;;;2.92;100.00
70900;BME280;67902;52.154;5.430;2024-02-28T01:51:17;102094.66;;;2.95;100.00
70900;BME280;67902;52.154;5.430;2024-02-28T01:53:48;102102.19;;;3.00;100.00
70900;BME280;67902;52.154;5.430;2024-02-28T01:56:15;102098.00;;;2.97;100.00
70900;BME280;67902;52.154;5.430;2024-02-28T01:58:45;102093.00;;;2.94;100.00
70900;BME280;67902;52.154;5.430;2024-02-28T02:01:16;102101.31;;;2.83;100.00
70900;BME280;67902;52.154;5.430;2024-02-28T02:03:44;102094.47;;;2.80;100.00
70900;BME280;67902;52.154;5.430;2024-02-28T02:06:10;102100.28;;;2.76;100.00
70900;BME280;67902;52.154;5.430;2024-02-28T02:08:38;102103.44;;;2.71;100.00
70900;BME280;67902;52.154;5.430;2024-02-28T02:11:05;102101.25;;;2.67;100.00
70900;BME280;67902;52.154;5.430;2024-02-28T02:13:32;102108.25;;;2.60;100.00
70900;BME280;67902;52.154;5.430;2024-02-28T02:15:59;102099.91;;;2.63;100.00
70900;BME280;67902;52.154;5.430;2024-02-28T02:18:25;102102.41;;;2.64;100.00
70900;BME280;67902;52.154;5.430;2024-02-28T02:21:02;102104.25;;;2.64;100.00
70900;BME280;67902;52.154;5.430;2024-02-28T02:23:31;102096.03;;;2.57;100.00
70900;BME280;67902;52.154;5.430;2024-02-28T02:25:58;102101.19;;;2.51;100.00
70900;BME280;67902;52.154;5.430;2024-02-28T02:28:24;102100.47;;;2.41;100.00
70900;BME280;67902;52.154;5.430;2024-02-28T02:30:51;102095.97;;;2.41;100.00
70900;BME280;67902;52.154;5.430;2024-02-28T02:33:17;102105.50;;;2.44;100.00
70900;BME280;67902;52.154;5.430;2024-02-28T02:35:44;102098.69;;;2.49;100.00
70900;BME280;67902;52.154;5.430;2024-02-28T02:38:10;102095.31;;;2.47;100.00
70900;BME280;67902;52.154;5.430;2024-02-28T02:40:37;102097.53;;;2.52;100.00
70900;BME280;67902;52.154;5.430;2024-02-28T02:43:03;102093.50;;;2.56;100.00
70900;BME280;67902;52.154;5.430;2024-02-28T02:45:30;102093.19;;;2.59;100.00
70900;BME280;67902;52.154;5.430;2024-02-28T02:47:56;102091.88;;;2.63;100.00
70900;BME280;67902;52.154;5.430;2024-02-28T02:50:23;102084.53;;;2.65;100.00
70900;BME280;67902;52.154;5.430;2024-02-28T02:52:49;102091.25;;;2.69;100.00
70900;BME280;67902;52.154;5.430;2024-02-28T02:55:16;102095.75;;;2.68;100.00
70900;BME280;67902;52.154;5.430;2024-02-28T02:57:42;102091.22;;;2.61;100.00
70900;BME280;67902;52.154;5.430;2024-02-28T03:00:10;102098.53;;;2.59;100.00
70900;BME280;67902;52.154;5.430;2024-02-28T03:02:37;102098.38;;;2.52;100.00
70900;BME280;67902;52.154;5.430;2024-02-28T03:05:07;102097.63;;;2.42;100.00
70900;BME280;67902;52.154;5.430;2024-02-28T03:07:33;102093.13;;;2.43;100.00
70900;BME280;67902;52.154;5.430;2024-02-28T03:10:00;102101.81;;;2.45;100.00
70900;BME280;67902;52.154;5.430;2024-02-28T03:12:26;102087.13;;;2.41;100.00
70900;BME280;67902;52.154;5.430;2024-02-28T03:14:53;102080.09;;;2.40;100.00
70900;BME280;67902;52.154;5.430;2024-02-28T03:17:19;102082.97;;;2.46;100.00
70900;BME280;67902;52.154;5.430;2024-02-28T03:19:46;102082.78;;;2.48;100.00
70900;BME280;67902;52.154;5.430;2024-02-28T03:22:13;102074.78;;;2.48;100.00
70900;BME280;67902;52.154;5.430;2024-02-28T03:24:40;102073.47;;;2.52;100.00
70900;BME280;67902;52.154;5.430;2024-02-28T03:27:06;102083.31;;;2.51;100.00
70900;BME280;67902;52.154;5.430;2024-02-28T03:29:33;102081.94;;;2.47;100.00
70900;BME280;67902;52.154;5.430;2024-02-28T03:31:59;102078.16;;;2.50;100.00
70900;BME280;67902;52.154;5.430;2024-02-28T03:34:26;102083.63;;;2.48;100.00
70900;BME280;67902;52.154;5.430;2024-02-28T03:36:52;102081.47;;;2.52;100.00
70900;BME280;67902;52.154;5.430;2024-02-28T03:39:19;102086.00;;;2.51;100.00
70900;BME280;67902;52.154;5.430;2024-02-28T03:41:46;102086.16;;;2.50;100.00
70900;BME280;67902;52.154;5.430;2024-02-28T03:44:12;102083.13;;;2.53;100.00
70900;BME280;67902;52.154;5.430;2024-02-28T03:46:39;102084.81;;;2.54;100.00
70900;BME280;67902;52.154;5.430;2024-02-28T03:49:05;102083.19;;;2.61;100.00
70900;BME280;67902;52.154;5.430;2024-02-28T03:51:32;102090.91;;;2.64;100.00
70900;BME280;67902;52.154;5.430;2024-02-28T03:53:58;102083.88;;;2.63;100.00
70900;BME280;67902;52.154;5.430;2024-02-28T03:56:25;102086.22;;;2.66;100.00
70900;BME280;67902;52.154;5.430;2024-02-28T03:58:53;102089.56;;;2.68;100.00
70900;BME280;67902;52.154;5.430;2024-02-28T04:01:19;102088.38;;;2.70;100.00
70900;BME280;67902;52.154;5.430;2024-02-28T04:03:46;102086.91;;;2.76;100.00
70900;BME280;67902;52.154;5.430;2024-02-28T04:06:12;102087.63;;;2.86;100.00
70900;BME280;67902;52.154;5.430;2024-02-28T04:08:40;102088.44;;;2.86;100.00
70900;BME280;67902;52.154;5.430;2024-02-28T04:11:07;102093.47;;;2.89;100.00
70900;BME280;67902;52.154;5.430;2024-02-28T04:13:33;102099.66;;;2.90;100.00
70900;BME280;67902;52.154;5.430;2024-02-28T04:16:02;102099.66;;;2.98;100.00
70900;BME280;67902;52.154;5.430;2024-02-28T04:18:29;102099.84;;;2.97;100.00
70900;BME280;67902;52.154;5.430;2024-02-28T04:20:56;102095.00;;;3.00;100.00
70900;BME280;67902;52.154;5.430;2024-02-28T04:23:23;102096.66;;;3.01;100.00
70900;BME280;67902;52.154;5.430;2024-02-28T04:25:49;102093.84;;;3.03;100.00
70900;BME280;67902;52.154;5.430;2024-02-28T04:28:15;102093.00;;;3.02;100.00
70900;BME280;67902;52.154;5.430;2024-02-28T04:30:42;102093.66;;;3.04;100.00
70900;BME280;67902;52.154;5.430;2024-02-28T04:33:09;102090.34;;;3.02;100.00
70900;BME280;67902;52.154;5.430;2024-02-28T04:35:35;102090.84;;;3.06;100.00
70900;BME280;67902;52.154;5.430;2024-02-28T04:38:02;102088.84;;;3.08;100.00
70900;BME280;67902;52.154;5.430;2024-02-28T04:40:28;102090.34;;;3.10;100.00
70900;BME280;67902;52.154;5.430;2024-02-28T04:42:55;102081.66;;;3.08;100.00
70900;BME280;67902;52.154;5.430;2024-02-28T04:45:22;102084.00;;;3.11;100.00
70900;BME280;67902;52.154;5.430;2024-02-28T04:47:49;102095.19;;;3.15;100.00
70900;BME280;67902;52.154;5.430;2024-02-28T04:50:18;102107.06;;;3.12;100.00
70900;BME280;67902;52.154;5.430;2024-02-28T04:52:44;102102.56;;;3.13;100.00
70900;BME280;67902;52.154;5.430;2024-02-28T04:55:11;102117.94;;;3.11;100.00
70900;BME280;67902;52.154;5.430;2024-02-28T04:57:38;102117.28;;;3.17;100.00
70900;BME280;67902;52.154;5.430;2024-02-28T05:00:06;102123.31;;;3.19;100.00
70900;BME280;67902;52.154;5.430;2024-02-28T05:02:34;102128.66;;;3.19;100.00
70900;BME280;67902;52.154;5.430;2024-02-28T05:05:00;102125.81;;;3.20;100.00
70900;BME280;67902;52.154;5.430;2024-02-28T05:07:27;102116.78;;;3.21;100.00
70900;BME280;67902;52.154;5.430;2024-02-28T05:09:53;102120.13;;;3.23;100.00
70900;BME280;67902;52.154;5.430;2024-02-28T05:12:20;102114.13;;;3.29;100.00
70900;BME280;67902;52.154;5.430;2024-02-28T05:14:46;102113.78;;;3.32;100.00
70900;BME280;67902;52.154;5.430;2024-02-28T05:17:14;102119.00;;;3.34;100.00
70900;BME280;67902;52.154;5.430;2024-02-28T05:19:41;102111.44;;;3.37;100.00
70900;BME280;67902;52.154;5.430;2024-02-28T05:22:07;102123.84;;;3.38;100.00
70900;BME280;67902;52.154;5.430;2024-02-28T05:24:34;102119.00;;;3.42;100.00
70900;BME280;67902;52.154;5.430;2024-02-28T05:27:01;102122.47;;;3.42;100.00
70900;BME280;67902;52.154;5.430;2024-02-28T05:29:28;102123.50;;;3.41;100.00
70900;BME280;67902;52.154;5.430;2024-02-28T05:31:54;102119.34;;;3.47;100.00
70900;BME280;67902;52.154;5.430;2024-02-28T05:34:21;102119.84;;;3.50;100.00
70900;BME280;67902;52.154;5.430;2024-02-28T05:36:48;102114.50;;;3.50;100.00
70900;BME280;67902;52.154;5.430;2024-02-28T05:39:16;102118.81;;;3.51;100.00
70900;BME280;67902;52.154;5.430;2024-02-28T05:41:43;102120.19;;;3.56;100.00
70900;BME280;67902;52.154;5.430;2024-02-28T05:44:09;102123.19;;;3.61;100.00
70900;BME280;67902;52.154;5.430;2024-02-28T05:46:36;102117.66;;;3.62;100.00
70900;BME280;67902;52.154;5.430;2024-02-28T05:49:04;102122.84;;;3.64;100.00
70900;BME280;67902;52.154;5.430;2024-02-28T05:51:30;102124.53;;;3.65;100.00
70900;BME280;67902;52.154;5.430;2024-02-28T05:53:57;102119.19;;;3.65;100.00
70900;BME280;67902;52.154;5.430;2024-02-28T05:56:23;102111.81;;;3.67;100.00
70900;BME280;67902;52.154;5.430;2024-02-28T05:58:50;102111.81;;;3.67;100.00
70900;BME280;67902;52.154;5.430;2024-02-28T06:01:17;102110.13;;;3.66;100.00
70900;BME280;67902;52.154;5.430;2024-02-28T06:03:47;102111.81;;;3.67;100.00
70900;BME280;67902;52.154;5.430;2024-02-28T06:06:14;102114.31;;;3.68;100.00
70900;BME280;67902;52.154;5.430;2024-02-28T06:08:41;102115.00;;;3.70;100.00
70900;BME280;67902;52.154;5.430;2024-02-28T06:11:07;102111.63;;;3.68;100.00
70900;BME280;67902;52.154;5.430;2024-02-28T06:13:34;102116.81;;;3.70;100.00
70900;BME280;67902;52.154;5.430;2024-02-28T06:16:01;102120.69;;;3.67;100.00
70900;BME280;67902;52.154;5.430;2024-02-28T06:18:28;102126.19;;;3.66;100.00
70900;BME280;67902;52.154;5.430;2024-02-28T06:20:59;102122.53;;;3.67;100.00
70900;BME280;67902;52.154;5.430;2024-02-28T06:23:29;102118.84;;;3.68;100.00
70900;BME280;67902;52.154;5.430;2024-02-28T06:25:56;102134.91;;;3.68;100.00
70900;BME280;67902;52.154;5.430;2024-02-28T06:28:24;102136.25;;;3.72;100.00
70900;BME280;67902;52.154;5.430;2024-02-28T06:30:51;102131.38;;;3.75;100.00
70900;BME280;67902;52.154;5.430;2024-02-28T06:33:17;102134.41;;;3.80;100.00
70900;BME280;67902;52.154;5.430;2024-02-28T06:35:45;102134.06;;;3.83;100.00
70900;BME280;67902;52.154;5.430;2024-02-28T06:38:11;102131.53;;;3.82;100.00
70900;BME280;67902;52.154;5.430;2024-02-28T06:40:38;102137.41;;;3.85;100.00
70900;BME280;67902;52.154;5.430;2024-02-28T06:43:04;102145.75;;;3.90;100.00
70900;BME280;67902;52.154;5.430;2024-02-28T06:45:31;102151.63;;;3.94;100.00
70900;BME280;67902;52.154;5.430;2024-02-28T06:47:58;102149.97;;;3.93;100.00
70900;BME280;67902;52.154;5.430;2024-02-28T06:50:24;102162.53;;;3.92;100.00
70900;BME280;67902;52.154;5.430;2024-02-28T06:52:51;102159.00;;;3.92;100.00
70900;BME280;67902;52.154;5.430;2024-02-28T06:55:20;102158.69;;;3.95;100.00
70900;BME280;67902;52.154;5.430;2024-02-28T06:57:47;102170.06;;;3.97;100.00
70900;BME280;67902;52.154;5.430;2024-02-28T07:00:14;102182.13;;;4.01;100.00
70900;BME280;67902;52.154;5.430;2024-02-28T07:02:42;102182.78;;;4.03;100.00
70900;BME280;67902;52.154;5.430;2024-02-28T07:05:08;102185.47;;;4.03;100.00
70900;BME280;67902;52.154;5.430;2024-02-28T07:07:35;102190.66;;;4.04;100.00
70900;BME280;67902;52.154;5.430;2024-02-28T07:10:03;102185.97;;;4.06;100.00
70900;BME280;67902;52.154;5.430;2024-02-28T07:12:31;102180.44;;;4.08;100.00
70900;BME280;67902;52.154;5.430;2024-02-28T07:14:57;102182.13;;;4.09;100.00
70900;BME280;67902;52.154;5.430;2024-02-28T07:17:24;102187.47;;;4.09;100.00
70900;BME280;67902;52.154;5.430;2024-02-28T07:19:50;102187.81;;;4.06;100.00
70900;BME280;67902;52.154;5.430;2024-02-28T07:22:17;102191.34;;;4.06;100.00
70900;BME280;67902;52.154;5.430;2024-02-28T07:24:44;102195.66;;;4.07;100.00
70900;BME280;67902;52.154;5.430;2024-02-28T07:27:10;102198.53;;;4.06;100.00
70900;BME280;67902;52.154;5.430;2024-02-28T07:29:37;102202.88;;;4.07;100.00
70900;BME280;67902;52.154;5.430;2024-02-28T07:32:04;102199.53;;;4.05;100.00
70900;BME280;67902;52.154;5.430;2024-02-28T07:34:31;102196.84;;;4.05;100.00
70900;BME280;67902;52.154;5.430;2024-02-28T07:36:58;102198.53;;;4.06;100.00
70900;BME280;67902;52.154;5.430;2024-02-28T07:39:24;102206.38;;;4.07;100.00
70900;BME280;67902;52.154;5.430;2024-02-28T07:41:51;102211.59;;;4.09;100.00
70900;BME280;67902;52.154;5.430;2024-02-28T07:44:21;102211.94;;;4.14;100.00
70900;BME280;67902;52.154;5.430;2024-02-28T07:46:48;102218.13;;;4.15;100.00
70900;BME280;67902;52.154;5.430;2024-02-28T07:49:17;102224.81;;;4.19;100.00
70900;BME280;67902;52.154;5.430;2024-02-28T07:51:45;102218.97;;;4.23;100.00
70900;BME280;67902;52.154;5.430;2024-02-28T07:54:12;102214.25;;;4.25;100.00
70900;BME280;67902;52.154;5.430;2024-02-28T07:56:38;102209.22;;;4.30;100.00
70900;BME280;67902;52.154;5.430;2024-02-28T07:59:05;102219.63;;;4.33;100.00
70900;BME280;67902;52.154;5.430;2024-02-28T08:01:31;102225.28;;;4.38;100.00
70900;BME280;67902;52.154;5.430;2024-02-28T08:03:58;102224.97;;;4.41;100.00
70900;BME280;67902;52.154;5.430;2024-02-28T08:06:26;102224.63;;;4.44;100.00
70900;BME280;67902;52.154;5.430;2024-02-28T08:08:53;102234.84;;;4.41;100.00
70900;BME280;67902;52.154;5.430;2024-02-28T08:11:20;102240.56;;;4.38;100.00
70900;BME280;67902;52.154;5.430;2024-02-28T08:13:46;102243.41;;;4.36;100.00
70900;BME280;67902;52.154;5.430;2024-02-28T08:16:13;102247.09;;;4.35;100.00
70900;BME280;67902;52.154;5.430;2024-02-28T08:18:39;102239.41;;;4.32;100.00
70900;BME280;67902;52.154;5.430;2024-02-28T08:21:06;102244.41;;;4.35;100.00
70900;BME280;67902;52.154;5.430;2024-02-28T08:23:32;102246.75;;;4.38;100.00
70900;BME280;67902;52.154;5.430;2024-02-28T08:25:59;102246.75;;;4.38;100.00
70900;BME280;67902;52.154;5.430;2024-02-28T08:28:25;102258.81;;;4.42;100.00
70900;BME280;67902;52.154;5.430;2024-02-28T08:30:52;102257.84;;;4.43;100.00
70900;BME280;67902;52.154;5.430;2024-02-28T08:33:18;102253.63;;;4.49;100.00
70900;BME280;67902;52.154;5.430;2024-02-28T08:35:48;102262.34;;;4.51;100.00
70900;BME280;67902;52.154;5.430;2024-02-28T08:38:16;102257.13;;;4.49;100.00
70900;BME280;67902;52.154;5.430;2024-02-28T08:40:43;102259.81;;;4.49;100.00
70900;BME280;67902;52.154;5.430;2024-02-28T08:43:09;102258.81;;;4.58;100.00
70900;BME280;67902;52.154;5.430;2024-02-28T08:45:35;102252.22;;;4.69;100.00
70900;BME280;67902;52.154;5.430;2024-02-28T08:48:05;102269.34;;;4.68;100.00
70900;BME280;67902;52.154;5.430;2024-02-28T08:50:31;102261.00;;;4.63;100.00
70900;BME280;67902;52.154;5.430;2024-02-28T08:52:58;102265.50;;;4.62;100.00
70900;BME280;67902;52.154;5.430;2024-02-28T08:55:24;102254.78;;;4.62;100.00
70900;BME280;67902;52.154;5.430;2024-02-28T08:57:51;102268.00;;;4.64;100.00
70900;BME280;67902;52.154;5.430;2024-02-28T09:00:17;102261.66;;;4.65;100.00
70900;BME280;67902;52.154;5.430;2024-02-28T09:02:44;102256.41;;;4.72;100.00
70900;BME280;67902;52.154;5.430;2024-02-28T09:05:10;102249.34;;;4.87;100.00
70900;BME280;67902;52.154;5.430;2024-02-28T09:07:37;102257.69;;;5.00;100.00
70900;BME280;67902;52.154;5.430;2024-02-28T09:10:04;102250.94;;;5.12;100.00
70900;BME280;67902;52.154;5.430;2024-02-28T09:12:34;102250.06;;;5.28;100.00
70900;BME280;67902;52.154;5.430;2024-02-28T09:15:00;102252.50;;;5.37;100.00
70900;BME280;67902;52.154;5.430;2024-02-28T09:17:27;102252.13;;;5.48;100.00
70900;BME280;67902;52.154;5.430;2024-02-28T09:19:53;102250.38;;;5.63;100.00
70900;BME280;67902;52.154;5.430;2024-02-28T09:22:21;102239.38;;;5.73;100.00
70900;BME280;67902;52.154;5.430;2024-02-28T09:24:47;102246.22;;;5.83;100.00
70900;BME280;67902;52.154;5.430;2024-02-28T09:27:15;102238.56;;;5.95;100.00
70900;BME280;67902;52.154;5.430;2024-02-28T09:29:41;102248.09;;;6.06;100.00
70900;BME280;67902;52.154;5.430;2024-02-28T09:32:08;102252.13;;;6.02;100.00
70900;BME280;67902;52.154;5.430;2024-02-28T09:34:35;102251.31;;;6.01;100.00
70900;BME280;67902;52.154;5.430;2024-02-28T09:37:03;102247.06;;;6.07;100.00
70900;BME280;67902;52.154;5.430;2024-02-28T09:39:30;102245.47;;;6.35;100.00
70900;BME280;67902;52.154;5.430;2024-02-28T09:41:57;102248.31;;;6.56;100.00
70900;BME280;67902;52.154;5.430;2024-02-28T09:44:24;102245.44;;;6.58;100.00
70900;BME280;67902;52.154;5.430;2024-02-28T09:46:52;102246.03;;;6.68;100.00
70900;BME280;67902;52.154;5.430;2024-02-28T09:49:19;102262.34;;;6.66;100.00
70900;BME280;67902;52.154;5.430;2024-02-28T09:51:48;102252.53;;;6.73;100.00
70900;BME280;67902;52.154;5.430;2024-02-28T09:54:16;102257.63;;;6.97;100.00
70900;BME280;67902;52.154;5.430;2024-02-28T09:56:43;102261.16;;;7.13;100.00
70900;BME280;67902;52.154;5.430;2024-02-28T09:59:11;102263.50;;;7.16;99.86
70900;BME280;67902;52.154;5.430;2024-02-28T10:01:43;102256.69;;;7.34;100.00
70900;BME280;67902;52.154;5.430;2024-02-28T10:04:12;102255.34;;;7.81;99.15
70900;BME280;67902;52.154;5.430;2024-02-28T10:06:40;102270.06;;;8.21;94.46
70900;BME280;67902;52.154;5.430;2024-02-28T10:09:07;102271.31;;;7.97;95.63
70900;BME280;67902;52.154;5.430;2024-02-28T10:11:34;102275.00;;;7.75;96.20
70900;BME280;67902;52.154;5.430;2024-02-28T10:14:02;102269.09;;;7.50;96.30
70900;BME280;67902;52.154;5.430;2024-02-28T10:16:29;102268.31;;;7.35;97.85
70900;BME280;67902;52.154;5.430;2024-02-28T10:18:55;102267.34;;;7.42;97.79
70900;BME280;67902;52.154;5.430;2024-02-28T10:21:22;102264.91;;;7.62;98.00
70900;BME280;67902;52.154;5.430;2024-02-28T10:23:50;102263.03;;;7.63;97.32
70900;BME280;67902;52.154;5.430;2024-02-28T10:26:17;102269.66;;;7.60;97.57
70900;BME280;67902;52.154;5.430;2024-02-28T10:28:43;102277.28;;;7.56;98.02
70900;BME280;67902;52.154;5.430;2024-02-28T10:31:11;102269.78;;;7.73;97.93
70900;BME280;67902;52.154;5.430;2024-02-28T10:33:38;102271.34;;;8.03;97.77
70900;BME280;67902;52.154;5.430;2024-02-28T10:36:05;102270.88;;;8.36;96.67
70900;BME280;67902;52.154;5.430;2024-02-28T10:38:32;102269.56;;;8.53;94.14
70900;BME280;67902;52.154;5.430;2024-02-28T10:41:00;102275.22;;;8.58;94.10
70900;BME280;67902;52.154;5.430;2024-02-28T10:43:28;102276.78;;;8.73;93.44
70900;BME280;67902;52.154;5.430;2024-02-28T10:45:57;102261.44;;;9.08;92.60
70900;BME280;67902;52.154;5.430;2024-02-28T10:48:44;102264.47;;;10.00;90.24
70900;BME280;67902;52.154;5.430;2024-02-28T10:51:15;102262.47;;;10.48;86.99
70900;BME280;67902;52.154;5.430;2024-02-28T10:53:43;102262.25;;;10.36;85.11
70900;BME280;67902;52.154;5.430;2024-02-28T10:56:14;102241.97;;;11.11;82.51
70900;BME280;67902;52.154;5.430;2024-02-28T10:58:52;102243.94;;;12.17;78.76
70900;BME280;67902;52.154;5.430;2024-02-28T11:01:19;102243.53;;;13.06;73.74
70900;BME280;67902;52.154;5.430;2024-02-28T11:03:47;102250.31;;;13.70;71.23
70900;BME280;67902;52.154;5.430;2024-02-28T11:06:19;102241.31;;;12.78;74.21
70900;BME280;67902;52.154;5.430;2024-02-28T11:08:48;102227.38;;;13.48;70.09
70900;BME280;67902;52.154;5.430;2024-02-28T11:11:15;102235.22;;;13.85;70.26
70900;BME280;67902;52.154;5.430;2024-02-28T11:13:56;102239.53;;;14.05;67.81
70900;BME280;67902;52.154;5.430;2024-02-28T11:16:33;102232.88;;;13.59;68.14
70900;BME280;67902;52.154;5.430;2024-02-28T11:19:01;102240.72;;;12.76;70.21
70900;BME280;67902;52.154;5.430;2024-02-28T11:21:28;102243.63;;;12.32;72.27
70900;BME280;67902;52.154;5.430;2024-02-28T11:24:01;102239.53;;;11.92;73.97
70900;BME280;67902;52.154;5.430;2024-02-28T11:26:28;102237.69;;;11.41;75.84
70900;BME280;67902;52.154;5.430;2024-02-28T11:28:55;102242.94;;;11.23;77.68
70900;BME280;67902;52.154;5.430;2024-02-28T11:31:22;102229.13;;;11.38;77.20
70900;BME280;67902;52.154;5.430;2024-02-28T11:33:48;102230.47;;;11.16;77.54
70900;BME280;67902;52.154;5.430;2024-02-28T11:36:15;102242.66;;;10.67;80.10
70900;BME280;67902;52.154;5.430;2024-02-28T11:38:43;102229.78;;;10.23;81.94
70900;BME280;67902;52.154;5.430;2024-02-28T11:41:10;102239.69;;;9.83;83.79
70900;BME280;67902;52.154;5.430;2024-02-28T11:43:37;102230.44;;;9.52;85.86
70900;BME280;67902;52.154;5.430;2024-02-28T11:46:17;102229.13;;;9.35;87.15
70900;BME280;67902;52.154;5.430;2024-02-28T11:48:45;102230.78;;;9.29;88.52
70900;BME280;67902;52.154;5.430;2024-02-28T11:51:12;102225.44;;;9.49;89.55
70900;BME280;67902;52.154;5.430;2024-02-28T11:53:38;102221.69;;;9.50;87.70
70900;BME280;67902;52.154;5.430;2024-02-28T11:56:05;102221.66;;;9.37;88.76
70900;BME280;67902;52.154;5.430;2024-02-28T11:58:31;102225.38;;;9.29;88.84
70900;BME280;67902;52.154;5.430;2024-02-28T12:00:58;102233.09;;;9.39;89.91
70900;BME280;67902;52.154;5.430;2024-02-28T12:03:25;102219.78;;;9.37;91.04
70900;BME280;67902;52.154;5.430;2024-02-28T12:05:55;102216.25;;;9.37;89.70
70900;BME280;67902;52.154;5.430;2024-02-28T12:08:21;102213.97;;;9.40;89.82
70900;BME280;67902;52.154;5.430;2024-02-28T12:10:50;102213.78;;;9.55;90.55
70900;BME280;67902;52.154;5.430;2024-02-28T12:13:17;102207.59;;;9.67;91.00
70900;BME280;67902;52.154;5.430;2024-02-28T12:15:45;102214.69;;;9.75;90.19
70900;BME280;67902;52.154;5.430;2024-02-28T12:18:14;102209.50;;;9.80;89.15
70900;BME280;67902;52.154;5.430;2024-02-28T12:20:41;102201.00;;;9.96;89.16
70900;BME280;67902;52.154;5.430;2024-02-28T12:23:07;102198.06;;;9.91;88.82
70900;BME280;67902;52.154;5.430;2024-02-28T12:25:34;102199.75;;;9.92;89.68
70900;BME280;67902;52.154;5.430;2024-02-28T12:28:01;102207.03;;;9.85;89.65
70900;BME280;67902;52.154;5.430;2024-02-28T12:30:29;102198.06;;;9.91;89.34
70900;BME280;67902;52.154;5.430;2024-02-28T12:32:55;102204.78;;;10.15;88.67
70900;BME280;67902;52.154;5.430;2024-02-28T12:35:22;102201.88;;;10.29;88.33
70900;BME280;67902;52.154;5.430;2024-02-28T12:37:48;102200.00;;;10.30;88.10
70900;BME280;67902;52.154;5.430;2024-02-28T12:40:16;102186.44;;;10.36;87.43
70900;BME280;67902;52.154;5.430;2024-02-28T12:42:43;102186.66;;;10.55;86.22
70900;BME280;67902;52.154;5.430;2024-02-28T12:45:10;102190.53;;;10.91;85.46
70900;BME280;67902;52.154;5.430;2024-02-28T12:47:37;102184.31;;;10.65;86.84
70900;BME280;67902;52.154;5.430;2024-02-28T12:50:05;102189.19;;;10.30;86.82
70900;BME280;67902;52.154;5.430;2024-02-28T12:52:34;102195.38;;;10.11;87.50